Los Angeles, California
Traffic Map
Current Weather Conditions
Los Angeles, California
Clear
Clear
16°
Feels Like: 16°
Wind Chill: 16° Ceiling: Unl
Heat Index: 16° Visibility: 10mi
Dew Point: Wind: 3mph
Humidity: 58% Direction: ° ()
Pressure: 29.87in Gusts: 0mph
Raw Report DataKCQT 281847Z AUTO VRB03KT 10SM CLR 16/08 A2987 RMK AO2 SLP113 T01610078
Traffic Incident Summary
Active as of:
Severity:
Category:
InformationThere was an issue retrieving the traffic information for this location. Please try a different location or try again shortly.
Advertisements
Track Severe Weather on mobile